createdAt,value
2016-11-24T00:00:29.580Z,0
2016-11-24T00:01:29.809Z,0
2016-11-24T00:02:29.764Z,0
2016-11-24T00:03:29.726Z,0
2016-11-24T00:04:29.695Z,0
2016-11-24T00:05:29.647Z,0
2016-11-24T00:06:29.300Z,0
2016-11-24T00:07:29.566Z,0
2016-11-24T00:08:29.223Z,0
2016-11-24T00:09:29.481Z,0
2016-11-24T00:10:29.444Z,0
2016-11-24T00:11:29.410Z,0
2016-11-24T00:12:28.759Z,0
2016-11-24T00:13:29.023Z,0
2016-11-24T00:14:28.983Z,0
2016-11-24T00:15:29.245Z,0
2016-11-24T00:16:28.599Z,0
2016-11-24T00:17:28.855Z,0
2016-11-24T00:18:29.116Z,0
2016-11-24T00:19:28.779Z,0
2016-11-24T00:20:29.041Z,0
2016-11-24T00:21:28.694Z,0
2016-11-24T00:22:28.662Z,0
2016-11-24T00:23:28.313Z,0
2016-11-24T00:24:28.571Z,0
2016-11-24T00:25:28.531Z,0
2016-11-24T00:26:28.796Z,0
2016-11-24T00:27:28.149Z,0
2016-11-24T00:28:28.711Z,0
2016-11-24T00:29:28.373Z,0
2016-11-24T00:30:28.028Z,0
2016-11-24T00:31:28.593Z,0
2016-11-24T00:32:28.279Z,0
2016-11-24T00:33:28.508Z,0
2016-11-24T00:34:28.472Z,0
2016-11-24T00:35:28.431Z,0
2016-11-24T00:36:28.393Z,0
2016-11-24T00:37:28.349Z,0
2016-11-24T00:38:28.310Z,0
2016-11-24T00:39:28.268Z,0
2016-11-24T00:40:27.930Z,0
2016-11-24T00:41:28.191Z,0
2016-11-24T00:42:28.148Z,0
2016-11-24T00:43:28.103Z,0
2016-11-24T00:44:27.764Z,0
2016-11-24T00:45:28.021Z,0
2016-11-24T00:46:27.683Z,0
2016-11-24T00:47:27.637Z,0
2016-11-24T00:48:27.612Z,0
2016-11-24T00:49:27.866Z,0
2016-11-24T00:50:27.521Z,0
2016-11-24T00:51:27.809Z,0
2016-11-24T00:52:27.739Z,0
2016-11-24T00:53:27.095Z,0
2016-11-24T00:54:27.659Z,0
2016-11-24T00:55:27.616Z,0
2016-11-24T00:56:27.579Z,0
2016-11-24T00:57:27.535Z,0
2016-11-24T00:58:27.496Z,0
2016-11-24T00:59:27.168Z,0
2016-11-24T01:00:27.412Z,0
2016-11-24T01:01:27.374Z,0
2016-11-24T01:02:27.332Z,0
2016-11-24T01:03:26.994Z,0
2016-11-24T01:04:26.951Z,0
2016-11-24T01:05:26.916Z,0
2016-11-24T01:06:26.868Z,0
2016-11-24T01:07:26.832Z,0
2016-11-24T01:08:26.490Z,0
2016-11-24T01:09:27.047Z,0
2016-11-24T01:10:27.015Z,0
2016-11-24T01:11:26.682Z,0
2016-11-24T01:12:26.930Z,0
2016-11-24T01:13:26.287Z,0
2016-11-24T01:14:26.846Z,0
2016-11-24T01:15:26.504Z,0
2016-11-24T01:16:26.762Z,0
2016-11-24T01:17:26.721Z,0
2016-11-24T01:18:26.383Z,0
2016-11-24T01:19:26.647Z,0
2016-11-24T01:20:26.300Z,0
2016-11-24T01:21:26.260Z,0
2016-11-24T01:22:26.524Z,0
2016-11-24T01:23:26.478Z,0
2016-11-24T01:24:26.443Z,0
2016-11-24T01:25:26.404Z,0
2016-11-24T01:26:25.756Z,0
2016-11-24T01:27:26.015Z,0
2016-11-24T01:28:25.977Z,0
2016-11-24T01:29:25.931Z,0
2016-11-24T01:30:25.591Z,0
2016-11-24T01:31:25.854Z,0
2016-11-24T01:32:25.510Z,0
2016-11-24T01:33:25.772Z,0
2016-11-24T01:34:26.036Z,0
2016-11-24T01:35:25.700Z,0
2016-11-24T01:36:25.955Z,0
2016-11-24T01:37:25.909Z,0
2016-11-24T01:38:25.570Z,0
2016-11-24T01:39:25.832Z,0
2016-11-24T01:40:25.187Z,0
2016-11-24T01:41:25.746Z,0
2016-11-24T01:42:25.713Z,0
2016-11-24T01:43:25.365Z,0
2016-11-24T01:44:25.635Z,0
2016-11-24T01:45:25.582Z,0
2016-11-24T01:46:25.546Z,0
2016-11-24T01:47:25.198Z,0
2016-11-24T01:48:24.859Z,0
2016-11-24T01:49:25.434Z,0
2016-11-24T01:50:25.383Z,0
2016-11-24T01:51:24.739Z,0
2016-11-24T01:52:25.302Z,0
2016-11-24T01:53:24.965Z,0
2016-11-24T01:54:25.223Z,0
2016-11-24T01:55:24.877Z,0
2016-11-24T01:56:24.839Z,0
2016-11-24T01:57:24.796Z,0
2016-11-24T01:58:25.063Z,0
2016-11-24T01:59:24.412Z,0
2016-11-24T02:00:24.672Z,0
2016-11-24T02:01:24.637Z,0
2016-11-24T02:02:24.594Z,0
2016-11-24T02:03:24.559Z,0
2016-11-24T02:04:24.822Z,0
2016-11-24T02:05:24.778Z,0
2016-11-24T02:06:24.424Z,0
2016-11-24T02:07:24.388Z,0
2016-11-24T02:08:24.652Z,0
2016-11-24T02:09:24.330Z,0
2016-11-24T02:10:24.269Z,0
2016-11-24T02:11:24.520Z,0
2016-11-24T02:12:24.193Z,0
2016-11-24T02:13:24.151Z,0
2016-11-24T02:14:23.498Z,0
2016-11-24T02:15:24.066Z,0
2016-11-24T02:16:24.026Z,0
2016-11-24T02:17:23.983Z,0
2016-11-24T02:18:24.242Z,0
2016-11-24T02:19:23.599Z,0
2016-11-24T02:20:23.861Z,0
2016-11-24T02:21:23.815Z,0
2016-11-24T02:22:23.780Z,0
2016-11-24T02:23:23.743Z,0
2016-11-24T02:24:23.693Z,0
2016-11-24T02:25:23.660Z,0
2016-11-24T02:26:23.618Z,0
2016-11-24T02:27:23.882Z,0
2016-11-24T02:28:23.838Z,0
2016-11-24T02:29:23.491Z,0
2016-11-24T02:30:23.754Z,0
2016-11-24T02:31:23.414Z,0
2016-11-24T02:32:23.683Z,0
2016-11-24T02:33:23.332Z,0
2016-11-24T02:34:23.594Z,0
2016-11-24T02:35:23.248Z,0
2016-11-24T02:36:23.512Z,0
2016-11-24T02:37:22.564Z,0
2016-11-24T02:38:23.125Z,0
2016-11-24T02:39:23.391Z,0
2016-11-24T02:40:23.347Z,0
2016-11-24T02:41:23.008Z,0
2016-11-24T02:42:23.263Z,0
2016-11-24T02:43:22.926Z,0
2016-11-24T02:44:23.184Z,0
2016-11-24T02:45:22.846Z,0
2016-11-24T02:46:23.104Z,0
2016-11-24T02:47:23.069Z,0
2016-11-24T02:48:23.027Z,0
2016-11-24T02:49:22.980Z,0
2016-11-24T02:50:22.941Z,0
2016-11-24T02:51:22.603Z,0
2016-11-24T02:52:22.864Z,0
2016-11-24T02:53:22.832Z,0
2016-11-24T02:54:22.805Z,0
2016-11-24T02:55:22.737Z,0
2016-11-24T02:56:22.698Z,0
2016-11-24T02:57:22.661Z,0
2016-11-24T02:58:22.613Z,0
2016-11-24T02:59:22.576Z,0
2016-11-24T03:00:22.538Z,0
2016-11-24T03:01:22.202Z,0
2016-11-24T03:02:22.452Z,0
2016-11-24T03:03:22.109Z,0
2016-11-24T03:04:22.378Z,0
2016-11-24T03:05:22.037Z,0
2016-11-24T03:06:22.294Z,0
2016-11-24T03:07:22.250Z,0
2016-11-24T03:08:22.217Z,0
2016-11-24T03:09:22.170Z,0
2016-11-24T03:10:21.837Z,0
2016-11-24T03:11:21.783Z,0
2016-11-24T03:12:21.749Z,0
2016-11-24T03:13:21.712Z,0
2016-11-24T03:14:21.358Z,0
2016-11-24T03:15:21.623Z,0
2016-11-24T03:16:21.576Z,0
2016-11-24T03:17:21.842Z,0
2016-11-24T03:18:21.805Z,0
2016-11-24T03:19:21.484Z,0
2016-11-24T03:20:21.715Z,0
2016-11-24T03:21:21.372Z,0
2016-11-24T03:22:21.031Z,0
2016-11-24T03:23:21.295Z,0
2016-11-24T03:24:21.562Z,0
2016-11-24T03:25:21.519Z,0
2016-11-24T03:26:21.172Z,0
2016-11-24T03:27:21.434Z,0
2016-11-24T03:28:21.096Z,0
2016-11-24T03:29:21.049Z,0
2016-11-24T03:30:21.008Z,0
2016-11-24T03:31:21.272Z,0
2016-11-24T03:32:20.929Z,0
2016-11-24T03:33:21.189Z,0
2016-11-24T03:34:20.545Z,0
2016-11-24T03:35:21.109Z,0
2016-11-24T03:36:21.101Z,0
2016-11-24T03:37:20.722Z,0
2016-11-24T03:38:20.988Z,0
2016-11-24T03:39:20.939Z,0
2016-11-24T03:40:20.604Z,0
2016-11-24T03:41:20.556Z,0
2016-11-24T03:42:20.826Z,0
2016-11-24T03:43:20.782Z,0
2016-11-24T03:44:20.740Z,0
2016-11-24T03:45:20.706Z,0
2016-11-24T03:46:20.658Z,0
2016-11-24T03:47:20.616Z,0
2016-11-24T03:48:19.976Z,0
2016-11-24T03:49:19.937Z,0
2016-11-24T03:50:20.199Z,0
2016-11-24T03:51:20.151Z,0
2016-11-24T03:52:20.431Z,0
2016-11-24T03:53:20.372Z,0
2016-11-24T03:54:20.030Z,0
2016-11-24T03:55:19.990Z,0
2016-11-24T03:56:20.262Z,0
2016-11-24T03:57:19.618Z,0
2016-11-24T03:58:19.865Z,0
2016-11-24T03:59:19.826Z,0
2016-11-24T04:00:20.086Z,0
2016-11-24T04:01:20.043Z,0
2016-11-24T04:02:20.019Z,0
2016-11-24T04:03:19.667Z,0
2016-11-24T04:04:19.924Z,0
2016-11-24T04:05:19.585Z,0
2016-11-24T04:06:19.841Z,0
2016-11-24T04:07:19.801Z,0
2016-11-24T04:08:19.463Z,0
2016-11-24T04:09:19.418Z,0
2016-11-24T04:10:19.374Z,0
2016-11-24T04:11:19.639Z,0
2016-11-24T04:12:19.596Z,0
2016-11-24T04:13:19.558Z,0
2016-11-24T04:14:19.514Z,0
2016-11-24T04:15:19.472Z,0
2016-11-24T04:16:19.163Z,0
2016-11-24T04:17:19.096Z,0
2016-11-24T04:18:18.751Z,0
2016-11-24T04:19:19.304Z,0
2016-11-24T04:20:19.271Z,0
2016-11-24T04:21:18.926Z,0
2016-11-24T04:22:19.192Z,0
2016-11-24T04:23:18.843Z,0
2016-11-24T04:24:19.104Z,0
2016-11-24T04:25:18.467Z,0
2016-11-24T04:26:18.719Z,0
2016-11-24T04:27:18.986Z,0
2016-11-24T04:28:18.648Z,0
2016-11-24T04:29:18.597Z,0
2016-11-24T04:30:18.558Z,0
2016-11-24T04:31:18.515Z,0
2016-11-24T04:32:18.774Z,0
2016-11-24T04:33:18.438Z,0
2016-11-24T04:34:18.699Z,0
2016-11-24T04:35:18.669Z,0
2016-11-24T04:36:18.616Z,0
2016-11-24T04:37:18.276Z,0
2016-11-24T04:38:17.928Z,0
2016-11-24T04:39:18.498Z,0
2016-11-24T04:40:18.459Z,0
2016-11-24T04:41:18.409Z,0
2016-11-24T04:42:18.373Z,0
2016-11-24T04:43:18.332Z,0
2016-11-24T04:44:18.289Z,0
2016-11-24T04:45:17.946Z,0
2016-11-24T04:46:17.604Z,0
2016-11-24T04:47:17.877Z,0
2016-11-24T04:48:18.125Z,0
2016-11-24T04:49:18.105Z,0
2016-11-24T04:50:17.740Z,0
2016-11-24T04:51:17.699Z,0
2016-11-24T04:52:17.656Z,0
2016-11-24T04:53:17.921Z,0
2016-11-24T04:54:17.573Z,0
2016-11-24T04:55:17.827Z,0
2016-11-24T04:56:17.495Z,0
2016-11-24T04:57:17.452Z,0
2016-11-24T04:58:17.415Z,0
2016-11-24T04:59:17.373Z,0
2016-11-24T05:00:17.638Z,0
2016-11-24T05:01:17.590Z,0
2016-11-24T05:02:17.560Z,0
2016-11-24T05:03:17.514Z,0
2016-11-24T05:04:17.476Z,0
2016-11-24T05:05:17.426Z,0
2016-11-24T05:06:17.084Z,0
2016-11-24T05:07:17.048Z,0
2016-11-24T05:08:17.006Z,0
2016-11-24T05:09:16.966Z,0
2016-11-24T05:10:17.225Z,0
2016-11-24T05:11:17.183Z,0
2016-11-24T05:12:16.541Z,0
2016-11-24T05:13:17.103Z,0
2016-11-24T05:14:16.791Z,0
2016-11-24T05:15:16.722Z,0
2016-11-24T05:16:16.680Z,0
2016-11-24T05:17:16.938Z,0
2016-11-24T05:18:16.287Z,0
2016-11-24T05:19:16.558Z,0
2016-11-24T05:20:16.809Z,0
2016-11-24T05:21:16.771Z,0
2016-11-24T05:22:16.469Z,0
2016-11-24T05:23:16.389Z,0
2016-11-24T05:24:16.649Z,0
2016-11-24T05:25:16.318Z,0
2016-11-24T05:26:15.968Z,0
2016-11-24T05:27:16.525Z,0
2016-11-24T05:28:16.483Z,0
2016-11-24T05:29:16.157Z,0
2016-11-24T05:30:15.802Z,0
2016-11-24T05:31:16.370Z,0
2016-11-24T05:32:16.020Z,0
2016-11-24T05:33:16.295Z,0
2016-11-24T05:34:15.954Z,0
2016-11-24T05:35:15.895Z,0
2016-11-24T05:36:16.157Z,0
2016-11-24T05:37:16.116Z,0
2016-11-24T05:38:16.098Z,0
2016-11-24T05:39:16.037Z,0
2016-11-24T05:40:15.999Z,0
2016-11-24T05:41:15.962Z,0
2016-11-24T05:42:15.933Z,0
2016-11-24T05:43:15.878Z,0
2016-11-24T05:44:15.528Z,0
2016-11-24T05:45:15.797Z,0
2016-11-24T05:46:15.747Z,0
2016-11-24T05:47:15.723Z,0
2016-11-24T05:48:15.665Z,0
2016-11-24T05:49:15.624Z,0
2016-11-24T05:50:15.587Z,0
2016-11-24T05:51:14.639Z,0
2016-11-24T05:52:15.197Z,0
2016-11-24T05:53:14.859Z,0
2016-11-24T05:54:15.422Z,0
2016-11-24T05:55:15.383Z,0
2016-11-24T05:56:15.041Z,0
2016-11-24T05:57:15.015Z,0
2016-11-24T05:58:15.257Z,0
2016-11-24T05:59:14.915Z,0
2016-11-24T06:00:15.176Z,0
2016-11-24T06:01:14.536Z,0
2016-11-24T06:02:15.095Z,0
2016-11-24T06:03:15.063Z,0
2016-11-24T06:04:14.408Z,0
2016-11-24T06:05:14.369Z,0
2016-11-24T06:06:14.636Z,0
2016-11-24T06:07:14.592Z,0
2016-11-24T06:08:14.562Z,4
2016-11-24T06:09:14.808Z,4
2016-11-24T06:10:14.769Z,0
2016-11-24T06:11:14.458Z,4
2016-11-24T06:12:14.683Z,4
2016-11-24T06:13:14.659Z,4
2016-11-24T06:14:14.603Z,8
2016-11-24T06:15:14.566Z,8
2016-11-24T06:16:14.219Z,8
2016-11-24T06:17:14.178Z,12
2016-11-24T06:18:14.135Z,12
2016-11-24T06:19:14.106Z,12
2016-11-24T06:20:14.062Z,16
2016-11-24T06:21:14.016Z,20
2016-11-24T06:22:14.280Z,20
2016-11-24T06:23:14.239Z,24
2016-11-24T06:24:13.900Z,28
2016-11-24T06:25:14.155Z,32
2016-11-24T06:26:14.111Z,44
2016-11-24T06:27:13.775Z,44
2016-11-24T06:28:13.427Z,52
2016-11-24T06:29:13.688Z,60
2016-11-24T06:30:13.952Z,72
2016-11-24T06:31:13.313Z,76
2016-11-24T06:32:13.899Z,88
2016-11-24T06:33:13.828Z,96
2016-11-24T06:34:13.486Z,108
2016-11-24T06:35:13.746Z,120
2016-11-24T06:36:13.704Z,128
2016-11-24T06:37:13.073Z,140
2016-11-24T06:38:13.318Z,152
2016-11-24T06:39:13.593Z,164
2016-11-24T06:40:13.240Z,172
2016-11-24T06:41:13.201Z,188
2016-11-24T06:42:13.465Z,200
2016-11-24T06:43:12.820Z,220
2016-11-24T06:44:13.080Z,236
2016-11-24T06:45:13.038Z,260
2016-11-24T06:46:12.995Z,284
2016-11-24T06:47:13.256Z,312
2016-11-24T06:48:12.920Z,340
2016-11-24T06:49:12.572Z,372
2016-11-24T06:50:12.537Z,412
2016-11-24T06:51:13.097Z,452
2016-11-24T06:52:12.747Z,492
2016-11-24T06:53:13.013Z,536
2016-11-24T06:54:12.975Z,584
2016-11-24T06:55:12.928Z,636
2016-11-24T06:56:12.894Z,692
2016-11-24T06:57:12.851Z,744
2016-11-24T06:58:12.808Z,804
2016-11-24T06:59:12.166Z,864
2016-11-24T07:00:12.731Z,928
2016-11-24T07:01:12.685Z,996
2016-11-24T07:02:12.641Z,1064
2016-11-24T07:03:11.999Z,1132
2016-11-24T07:04:12.264Z,1208
2016-11-24T07:05:12.221Z,1288
2016-11-24T07:06:12.486Z,1368
2016-11-24T07:07:11.839Z,1456
2016-11-24T07:08:12.402Z,1544
2016-11-24T07:09:12.074Z,1640
2016-11-24T07:10:12.017Z,1736
2016-11-24T07:11:11.978Z,1836
2016-11-24T07:12:11.935Z,1936
2016-11-24T07:13:12.200Z,2040
2016-11-24T07:14:11.553Z,2144
2016-11-24T07:15:11.818Z,2248
2016-11-24T07:16:12.108Z,2352
2016-11-24T07:17:12.035Z,2460
2016-11-24T07:18:11.996Z,2568
2016-11-24T07:19:11.357Z,2680
2016-11-24T07:20:11.916Z,2796
2016-11-24T07:21:11.271Z,2904
2016-11-24T07:22:11.836Z,3020
2016-11-24T07:23:11.797Z,3136
2016-11-24T07:24:11.754Z,3252
2016-11-24T07:25:11.719Z,3372
2016-11-24T07:26:11.669Z,3492
2016-11-24T07:27:11.638Z,3608
2016-11-24T07:28:11.290Z,3728
2016-11-24T07:29:11.560Z,3844
2016-11-24T07:30:11.517Z,3964
2016-11-24T07:31:11.475Z,4080
2016-11-24T07:32:11.446Z,4200
2016-11-24T07:33:11.091Z,4316
2016-11-24T07:34:11.053Z,4440
2016-11-24T07:35:10.710Z,4556
2016-11-24T07:36:10.975Z,4688
2016-11-24T07:37:10.633Z,4804
2016-11-24T07:38:10.288Z,4908
2016-11-24T07:39:11.177Z,5012
2016-11-24T07:40:11.112Z,5100
2016-11-24T07:41:10.792Z,5188
2016-11-24T07:42:10.733Z,5284
2016-11-24T07:43:11.001Z,5380
2016-11-24T07:44:10.658Z,5476
2016-11-24T07:45:10.913Z,5564
2016-11-24T07:46:10.875Z,5636
2016-11-24T07:47:10.538Z,5724
2016-11-24T07:48:10.496Z,5808
2016-11-24T07:49:10.759Z,5880
2016-11-24T07:50:10.722Z,5952
2016-11-24T07:51:10.381Z,6020
2016-11-24T07:52:10.340Z,6092
2016-11-24T07:53:10.605Z,6176
2016-11-24T07:54:10.559Z,6268
2016-11-24T07:55:10.522Z,6356
2016-11-24T07:56:10.182Z,6436
2016-11-24T07:57:10.136Z,6508
2016-11-24T07:58:10.409Z,6588
2016-11-24T07:59:10.111Z,6664
2016-11-24T08:00:10.330Z,6748
2016-11-24T08:01:09.681Z,6816
2016-11-24T08:02:09.944Z,6896
2016-11-24T08:03:10.204Z,6972
2016-11-24T08:04:09.567Z,7032
2016-11-24T08:05:10.162Z,7088
2016-11-24T08:06:10.095Z,7160
2016-11-24T08:07:09.751Z,7232
2016-11-24T08:08:10.016Z,7328
2016-11-24T08:09:09.978Z,7384
2016-11-24T08:10:09.639Z,7388
2016-11-24T08:11:09.903Z,7368
2016-11-24T08:12:09.556Z,7364
2016-11-24T08:13:09.217Z,7344
2016-11-24T08:14:09.780Z,7324
2016-11-24T08:15:09.741Z,7300
2016-11-24T08:16:09.714Z,7276
2016-11-24T08:17:09.064Z,7260
2016-11-24T08:18:09.327Z,7240
2016-11-24T08:19:09.587Z,7224
2016-11-24T08:20:09.248Z,7196
2016-11-24T08:21:08.912Z,7156
2016-11-24T08:22:09.483Z,7104
2016-11-24T08:23:09.440Z,7064
2016-11-24T08:24:09.089Z,7028
2016-11-24T08:25:09.062Z,7008
2016-11-24T08:26:09.017Z,7008
2016-11-24T08:27:08.982Z,7004
2016-11-24T08:28:08.635Z,7000
2016-11-24T08:29:09.206Z,6988
2016-11-24T08:30:09.169Z,6972
2016-11-24T08:31:08.830Z,6960
2016-11-24T08:32:08.789Z,6976
2016-11-24T08:33:08.756Z,6988
2016-11-24T08:34:09.011Z,6992
2016-11-24T08:35:08.978Z,7012
2016-11-24T08:36:08.634Z,7020
2016-11-24T08:37:08.598Z,7012
2016-11-24T08:38:08.558Z,7000
2016-11-24T08:39:08.520Z,7012
2016-11-24T08:40:08.780Z,6992
2016-11-24T08:41:08.745Z,6976
2016-11-24T08:42:08.405Z,6956
2016-11-24T08:43:08.404Z,6940
2016-11-24T08:44:08.635Z,6964
2016-11-24T08:45:08.594Z,6988
2016-11-24T08:46:07.956Z,7028
2016-11-24T08:47:08.532Z,7048
2016-11-24T08:48:08.177Z,7052
2016-11-24T08:49:08.137Z,7068
2016-11-24T08:50:08.107Z,7088
2016-11-24T08:51:08.365Z,7112
2016-11-24T08:52:08.335Z,7168
2016-11-24T08:53:08.320Z,7240
2016-11-24T08:54:07.951Z,7376
2016-11-24T08:55:07.920Z,7484
2016-11-24T08:56:07.575Z,7472
2016-11-24T08:57:08.138Z,7360
2016-11-24T08:58:07.823Z,7324
2016-11-24T08:59:07.461Z,7324
2016-11-24T09:00:07.729Z,7312
2016-11-24T09:01:07.995Z,7324
2016-11-24T09:02:07.646Z,7364
2016-11-24T09:03:07.909Z,7400
2016-11-24T09:04:07.268Z,7408
2016-11-24T09:05:07.837Z,7436
2016-11-24T09:06:07.797Z,7468
2016-11-24T09:07:07.789Z,7524
2016-11-24T09:08:07.420Z,7572
2016-11-24T09:09:07.682Z,7592
2016-11-24T09:10:07.349Z,7632
2016-11-24T09:11:07.005Z,7672
2016-11-24T09:12:07.272Z,7712
2016-11-24T09:13:07.530Z,7720
2016-11-24T09:14:07.497Z,7716
2016-11-24T09:15:07.456Z,7712
2016-11-24T09:16:07.424Z,7740
2016-11-24T09:17:07.116Z,7764
2016-11-24T09:18:06.737Z,7808
2016-11-24T09:19:06.705Z,7852
2016-11-24T09:20:06.966Z,7912
2016-11-24T09:21:07.243Z,7980
2016-11-24T09:22:07.224Z,8024
2016-11-24T09:23:06.857Z,8104
2016-11-24T09:24:07.118Z,8176
2016-11-24T09:25:06.484Z,8260
2016-11-24T09:26:07.073Z,8336
2016-11-24T09:27:07.007Z,8416
2016-11-24T09:28:06.967Z,8500
2016-11-24T09:29:06.632Z,8556
2016-11-24T09:30:06.898Z,8580
2016-11-24T09:31:06.559Z,8572
2016-11-24T09:32:06.521Z,8540
2016-11-24T09:33:06.483Z,8520
2016-11-24T09:34:06.754Z,8488
2016-11-24T09:35:06.404Z,8452
2016-11-24T09:36:06.368Z,8440
2016-11-24T09:37:06.332Z,8436
2016-11-24T09:38:06.597Z,8432
2016-11-24T09:39:06.589Z,8496
2016-11-24T09:40:06.521Z,8632
2016-11-24T09:41:06.210Z,8928
2016-11-24T09:42:06.450Z,9360
2016-11-24T09:43:06.112Z,9512
2016-11-24T09:44:05.770Z,9920
2016-11-24T09:45:06.081Z,10428
2016-11-24T09:46:06.296Z,10552
2016-11-24T09:47:06.265Z,10708
2016-11-24T09:48:05.924Z,10728
2016-11-24T09:49:06.191Z,11068
2016-11-24T09:50:06.157Z,10932
2016-11-24T09:51:06.113Z,10976
2016-11-24T09:52:06.078Z,10800
2016-11-24T09:53:06.045Z,10908
2016-11-24T09:54:05.705Z,11024
2016-11-24T09:55:05.665Z,11232
2016-11-24T09:56:05.634Z,11064
2016-11-24T09:57:05.600Z,11076
2016-11-24T09:58:05.863Z,10912
2016-11-24T09:59:05.257Z,10880
2016-11-24T10:00:05.787Z,10880
2016-11-24T10:01:05.453Z,10688
2016-11-24T10:02:05.419Z,10528
2016-11-24T10:03:05.680Z,10420
2016-11-24T10:04:05.341Z,10388
2016-11-24T10:05:05.310Z,10376
2016-11-24T10:06:05.268Z,10392
2016-11-24T10:07:05.237Z,10396
2016-11-24T10:08:05.194Z,10404
2016-11-24T10:09:05.173Z,10420
2016-11-24T10:10:05.128Z,10580
2016-11-24T10:11:05.391Z,10704
2016-11-24T10:12:05.054Z,10732
2016-11-24T10:13:05.318Z,10752
2016-11-24T10:14:04.376Z,10812
2016-11-24T10:15:04.645Z,10824
2016-11-24T10:16:05.220Z,10812
2016-11-24T10:17:04.881Z,10804
2016-11-24T10:18:04.836Z,10768
2016-11-24T10:19:04.804Z,10660
2016-11-24T10:20:05.065Z,10556
2016-11-24T10:21:05.045Z,10472
2016-11-24T10:22:04.696Z,10452
2016-11-24T10:23:04.960Z,10440
2016-11-24T10:24:04.928Z,10488
2016-11-24T10:25:04.591Z,10548
2016-11-24T10:26:04.853Z,10624
2016-11-24T10:27:04.818Z,10736
2016-11-24T10:28:04.794Z,10896
2016-11-24T10:29:04.752Z,10988
2016-11-24T10:30:04.416Z,11072
2016-11-24T10:31:04.381Z,11184
2016-11-24T10:32:04.360Z,11364
2016-11-24T10:33:04.310Z,11700
2016-11-24T10:34:04.269Z,11848
2016-11-24T10:35:04.543Z,11736
2016-11-24T10:36:04.346Z,11800
2016-11-24T10:37:04.220Z,11772
2016-11-24T10:38:04.444Z,11692
2016-11-24T10:39:04.098Z,11648
2016-11-24T10:40:04.066Z,11628
2016-11-24T10:41:04.026Z,11736
2016-11-24T10:42:04.295Z,11588
2016-11-24T10:43:03.962Z,11356
2016-11-24T10:44:04.226Z,11188
2016-11-24T10:45:04.184Z,11000
2016-11-24T10:46:03.849Z,10832
2016-11-24T10:47:03.820Z,10728
2016-11-24T10:48:03.482Z,10644
2016-11-24T10:49:04.062Z,10572
2016-11-24T10:50:03.407Z,10460
2016-11-24T10:51:04.008Z,10304
2016-11-24T10:52:03.642Z,10156
2016-11-24T10:53:03.612Z,10020
2016-11-24T10:54:03.575Z,9872
2016-11-24T10:55:03.843Z,9740
2016-11-24T10:56:03.504Z,9612
2016-11-24T10:57:03.469Z,9492
2016-11-24T10:58:03.429Z,9388
2016-11-24T10:59:03.699Z,9284
2016-11-24T11:00:03.363Z,9208
2016-11-24T11:01:03.648Z,9132
2016-11-24T11:02:03.603Z,9044
2016-11-24T11:03:03.256Z,8964
2016-11-24T11:04:03.526Z,8872
2016-11-24T11:05:03.494Z,8804
2016-11-24T11:06:03.150Z,8744
2016-11-24T11:07:03.420Z,8672
2016-11-24T11:08:03.083Z,8576
2016-11-24T11:09:03.049Z,8508
2016-11-24T11:10:03.311Z,8456
2016-11-24T11:11:03.286Z,8408
2016-11-24T11:12:02.942Z,8368
2016-11-24T11:13:02.611Z,8324
2016-11-24T11:14:03.203Z,8288
2016-11-24T11:15:03.144Z,8256
2016-11-24T11:16:02.531Z,8212
2016-11-24T11:17:03.073Z,8184
2016-11-24T11:18:02.429Z,8164
2016-11-24T11:19:02.694Z,8148
2016-11-24T11:20:02.966Z,8144
2016-11-24T11:21:02.625Z,8128
2016-11-24T11:22:02.893Z,8112
2016-11-24T11:23:02.558Z,8108
2016-11-24T11:24:02.828Z,8104
2016-11-24T11:25:02.788Z,8096
2016-11-24T11:26:02.759Z,8068
2016-11-24T11:27:02.419Z,8048
2016-11-24T11:28:02.685Z,8024
2016-11-24T11:29:02.649Z,8016
2016-11-24T11:30:02.627Z,8008
2016-11-24T11:31:01.673Z,8004
2016-11-24T11:32:02.547Z,8004
2016-11-24T11:33:02.207Z,8000
2016-11-24T11:34:01.871Z,7980
2016-11-24T11:35:02.436Z,7952
2016-11-24T11:36:02.411Z,7944
2016-11-24T11:37:02.374Z,7940
2016-11-24T11:38:02.033Z,7936
2016-11-24T11:39:01.695Z,7936
2016-11-24T11:40:01.963Z,7952
2016-11-24T11:41:02.231Z,7968
2016-11-24T11:42:02.194Z,7992
2016-11-24T11:43:01.857Z,8040
2016-11-24T11:44:01.822Z,8096
2016-11-24T11:45:01.784Z,8136
2016-11-24T11:46:02.050Z,8184
2016-11-24T11:47:01.710Z,8232
2016-11-24T11:48:01.680Z,8260
2016-11-24T11:49:01.350Z,8280
2016-11-24T11:50:01.907Z,8276
2016-11-24T11:51:01.273Z,8276
2016-11-24T11:52:01.840Z,8272
2016-11-24T11:53:01.804Z,8248
2016-11-24T11:54:01.766Z,8212
2016-11-24T11:55:01.434Z,8156
2016-11-24T11:56:01.410Z,8100
2016-11-24T11:57:01.670Z,8044
2016-11-24T11:58:01.631Z,7988
2016-11-24T11:59:01.598Z,7936
2016-11-24T12:00:01.579Z,7864
2016-11-24T12:01:01.526Z,7760
2016-11-24T12:02:01.188Z,7640
2016-11-24T12:03:00.557Z,7540
2016-11-24T12:04:01.115Z,7456
2016-11-24T12:05:01.387Z,7364
2016-11-24T12:06:01.348Z,7268
2016-11-24T12:07:01.011Z,7204
2016-11-24T12:08:01.279Z,7168
2016-11-24T12:09:00.945Z,7144
2016-11-24T12:10:00.909Z,7116
2016-11-24T12:11:01.178Z,7072
2016-11-24T12:12:00.836Z,7016
2016-11-24T12:13:00.495Z,6944
2016-11-24T12:14:00.468Z,6868
2016-11-24T12:15:00.728Z,6784
2016-11-24T12:16:00.701Z,6696
2016-11-24T12:17:00.959Z,6608
2016-11-24T12:18:00.625Z,6540
2016-11-24T12:19:00.886Z,6480
2016-11-24T12:20:00.253Z,6424
2016-11-24T12:21:00.820Z,6408
2016-11-24T12:22:00.786Z,6404
2016-11-24T12:23:00.758Z,6376
2016-11-24T12:24:00.713Z,6352
2016-11-24T12:25:00.083Z,6316
2016-11-24T12:26:00.643Z,6276
2016-11-24T12:27:00.607Z,6248
2016-11-24T12:28:00.580Z,6228
2016-11-24T12:29:00.235Z,6200
2016-11-24T12:29:59.896Z,6184
2016-11-24T12:31:00.476Z,6180
2016-11-24T12:32:00.126Z,6188
2016-11-24T12:33:00.394Z,6196
2016-11-24T12:34:00.358Z,6220
2016-11-24T12:35:00.026Z,6260
2016-11-24T12:35:59.994Z,6288
2016-11-24T12:36:59.951Z,6308
2016-11-24T12:38:00.218Z,6308
2016-11-24T12:38:59.886Z,6304
2016-11-24T12:39:59.847Z,6268
2016-11-24T12:40:59.820Z,6212
2016-11-24T12:42:00.070Z,6128
2016-11-24T12:42:59.738Z,6040
2016-11-24T12:43:59.706Z,5932
2016-11-24T12:44:59.973Z,5812
2016-11-24T12:45:59.931Z,5696
2016-11-24T12:46:59.897Z,5580
2016-11-24T12:47:59.562Z,5456
2016-11-24T12:48:59.526Z,5356
2016-11-24T12:49:59.486Z,5284
2016-11-24T12:50:59.759Z,5204
2016-11-24T12:51:59.415Z,5112
2016-11-24T12:52:59.688Z,5044
2016-11-24T12:53:59.645Z,5008
2016-11-24T12:54:59.610Z,4964
2016-11-24T12:55:59.573Z,4916
2016-11-24T12:56:59.234Z,4856
2016-11-24T12:57:59.506Z,4808
2016-11-24T12:58:59.472Z,4760
2016-11-24T12:59:59.426Z,4716
2016-11-24T13:00:59.106Z,4680
2016-11-24T13:01:59.054Z,4640
2016-11-24T13:02:59.323Z,4596
2016-11-24T13:03:58.995Z,4572
2016-11-24T13:04:58.951Z,4552
2016-11-24T13:05:58.914Z,4536
2016-11-24T13:06:59.177Z,4536
2016-11-24T13:07:59.145Z,4568
2016-11-24T13:08:58.802Z,4600
2016-11-24T13:09:58.769Z,4640
2016-11-24T13:10:59.036Z,4688
2016-11-24T13:11:58.709Z,4740
2016-11-24T13:12:58.669Z,4812
2016-11-24T13:13:58.930Z,4900
2016-11-24T13:14:58.887Z,4980
2016-11-24T13:15:58.561Z,5020
2016-11-24T13:16:58.517Z,5080
2016-11-24T13:17:58.816Z,5152
2016-11-24T13:18:58.753Z,5212
2016-11-24T13:19:58.715Z,5252
2016-11-24T13:20:58.684Z,5268
2016-11-24T13:21:58.337Z,5288
2016-11-24T13:22:58.301Z,5324
2016-11-24T13:23:58.269Z,5340
2016-11-24T13:24:58.233Z,5384
2016-11-24T13:25:58.497Z,5448
2016-11-24T13:26:58.459Z,5508
2016-11-24T13:27:58.449Z,5556
2016-11-24T13:28:58.089Z,5604
2016-11-24T13:29:58.045Z,5660
2016-11-24T13:30:58.322Z,5712
2016-11-24T13:31:58.275Z,5756
2016-11-24T13:32:58.245Z,5780
2016-11-24T13:33:57.599Z,5792
2016-11-24T13:34:58.171Z,5760
2016-11-24T13:35:57.529Z,5720
2016-11-24T13:36:57.815Z,5644
2016-11-24T13:37:58.082Z,5560
2016-11-24T13:38:58.035Z,5480
2016-11-24T13:39:57.697Z,5408
2016-11-24T13:40:57.955Z,5368
2016-11-24T13:41:57.618Z,5344
2016-11-24T13:42:57.287Z,5300
2016-11-24T13:43:57.847Z,5212
2016-11-24T13:44:57.507Z,5120
2016-11-24T13:45:57.472Z,5024
2016-11-24T13:46:57.441Z,4940
2016-11-24T13:47:57.705Z,4868
2016-11-24T13:48:57.666Z,4776
2016-11-24T13:49:57.327Z,4688
2016-11-24T13:50:57.295Z,4592
2016-11-24T13:51:57.590Z,4496
2016-11-24T13:52:57.225Z,4412
2016-11-24T13:53:57.523Z,4332
2016-11-24T13:54:57.456Z,4252